createdAt,value
2023-05-08T00:02:08.661Z,2.40
2023-05-08T00:04:36.338Z,2.40
2023-05-08T00:07:03.377Z,2.20
2023-05-08T00:09:30.673Z,2.20
2023-05-08T00:11:57.585Z,2.20
2023-05-08T00:14:24.818Z,2.20
2023-05-08T00:16:52.114Z,2.20
2023-05-08T00:19:19.830Z,2.20
2023-05-08T00:21:46.857Z,2.10
2023-05-08T00:24:14.385Z,2.10
2023-05-08T00:26:42.051Z,2.10
2023-05-08T00:29:09.240Z,2.10
2023-05-08T00:31:36.211Z,2.10
2023-05-08T00:34:03.448Z,2.00
2023-05-08T00:36:30.380Z,2.00
2023-05-08T00:38:57.597Z,2.00
2023-05-08T00:41:24.817Z,1.90
2023-05-08T00:43:52.100Z,1.90
2023-05-08T00:46:19.107Z,1.90
2023-05-08T00:48:47.084Z,2.00
2023-05-08T00:51:14.804Z,2.00
2023-05-08T00:53:44.544Z,1.80
2023-05-08T00:56:14.158Z,1.80
2023-05-08T00:58:42.142Z,1.70
2023-05-08T01:01:09.978Z,1.70
2023-05-08T01:03:38.444Z,1.70
2023-05-08T01:06:06.772Z,1.60
2023-05-08T01:08:34.593Z,1.60
2023-05-08T01:11:07.291Z,1.50
2023-05-08T01:13:58.675Z,1.50
2023-05-08T01:16:56.563Z,1.50
2023-05-08T01:19:26.701Z,1.50
2023-05-08T01:22:32.505Z,1.60
2023-05-08T01:25:31.929Z,1.60
2023-05-08T01:28:22.122Z,1.70
2023-05-08T01:30:58.450Z,1.70
2023-05-08T01:33:51.472Z,1.70
2023-05-08T01:36:31.534Z,1.70
2023-05-08T01:39:26.964Z,1.80
2023-05-08T01:42:08.603Z,1.80
2023-05-08T01:44:39.108Z,1.80
2023-05-08T01:47:09.124Z,1.90
2023-05-08T01:49:44.411Z,1.90
2023-05-08T01:52:21.000Z,1.90
2023-05-08T01:54:58.980Z,1.80
2023-05-08T01:57:30.092Z,1.80
2023-05-08T02:00:00.591Z,1.70
2023-05-08T02:02:30.838Z,1.60
2023-05-08T02:04:59.152Z,1.60
2023-05-08T02:07:27.220Z,1.50
2023-05-08T02:09:55.538Z,1.40
2023-05-08T02:12:24.408Z,1.40
2023-05-08T02:14:53.765Z,1.40
2023-05-08T02:17:21.764Z,1.40
2023-05-08T02:19:51.035Z,1.40
2023-05-08T02:22:21.537Z,1.40
2023-05-08T02:24:53.192Z,1.40
2023-05-08T02:27:23.131Z,1.30
2023-05-08T02:29:52.111Z,1.20
2023-05-08T02:32:21.432Z,1.10
2023-05-08T02:35:02.553Z,1.10
2023-05-08T02:37:32.174Z,1.10
2023-05-08T02:39:59.746Z,1.00
2023-05-08T02:42:27.240Z,1.10
2023-05-08T02:44:54.228Z,1.10
2023-05-08T02:47:29.816Z,1.00
2023-05-08T02:50:15.075Z,1.00
2023-05-08T02:52:49.199Z,1.00
2023-05-08T02:55:28.011Z,1.00
2023-05-08T02:58:09.920Z,1.00
2023-05-08T03:01:06.577Z,0.90
2023-05-08T03:03:46.142Z,0.90
2023-05-08T03:06:17.144Z,0.90
2023-05-08T03:08:47.182Z,1.00
2023-05-08T03:11:17.675Z,1.00
2023-05-08T03:13:48.418Z,1.00
2023-05-08T03:16:19.239Z,1.00
2023-05-08T03:19:01.514Z,1.00
2023-05-08T03:21:30.545Z,1.10
2023-05-08T03:24:00.812Z,1.10
2023-05-08T03:26:28.993Z,1.20
2023-05-08T03:28:57.616Z,1.20
2023-05-08T03:31:25.815Z,1.30
2023-05-08T03:33:54.640Z,1.30
2023-05-08T03:36:22.658Z,1.40
2023-05-08T03:38:50.564Z,1.50
2023-05-08T03:41:17.722Z,1.50
2023-05-08T03:43:46.101Z,1.50
2023-05-08T03:46:13.948Z,1.60
2023-05-08T03:48:42.265Z,1.70
2023-05-08T03:51:09.665Z,1.70
2023-05-08T03:53:37.037Z,1.70
2023-05-08T03:56:04.448Z,1.80
2023-05-08T03:58:41.042Z,1.90
2023-05-08T04:01:28.584Z,2.00
2023-05-08T04:04:24.390Z,2.10
2023-05-08T04:07:12.464Z,2.30
2023-05-08T04:09:51.861Z,2.30
2023-05-08T04:12:44.419Z,2.40
2023-05-08T04:15:17.600Z,2.60
2023-05-08T04:17:59.151Z,2.70
2023-05-08T04:20:29.399Z,2.90
2023-05-08T04:22:58.483Z,3.00
2023-05-08T04:25:26.535Z,3.10
2023-05-08T04:27:54.485Z,3.10
2023-05-08T04:30:22.247Z,3.30
2023-05-08T04:32:49.938Z,3.40
2023-05-08T04:35:17.833Z,3.50
2023-05-08T04:37:46.813Z,3.70
2023-05-08T04:40:14.237Z,3.90
2023-05-08T04:42:43.081Z,4.10
2023-05-08T04:45:11.478Z,4.10
2023-05-08T04:47:38.798Z,4.10
2023-05-08T04:50:06.431Z,4.20
2023-05-08T04:52:33.503Z,4.40
2023-05-08T04:55:00.701Z,4.50
2023-05-08T04:57:27.772Z,4.70
2023-05-08T04:59:55.110Z,4.80
2023-05-08T05:02:22.275Z,5.00
2023-05-08T05:04:49.805Z,5.30
2023-05-08T05:07:16.762Z,5.40
2023-05-08T05:09:44.358Z,5.60
2023-05-08T05:12:11.307Z,5.70
2023-05-08T05:14:38.564Z,5.90
2023-05-08T05:17:06.091Z,6.00
2023-05-08T05:19:33.432Z,6.20
2023-05-08T05:22:00.469Z,6.40
2023-05-08T05:24:27.700Z,6.50
2023-05-08T05:26:54.683Z,6.80
2023-05-08T05:29:21.921Z,6.90
2023-05-08T05:31:49.817Z,7.10
2023-05-08T05:34:17.324Z,7.20
2023-05-08T05:36:44.297Z,7.30
2023-05-08T05:39:11.557Z,7.40
2023-05-08T05:41:38.640Z,7.60
2023-05-08T05:44:06.749Z,7.80
2023-05-08T05:46:33.719Z,7.90
2023-05-08T05:49:01.426Z,8.00
2023-05-08T05:51:28.583Z,8.20
2023-05-08T05:53:57.142Z,8.30
2023-05-08T05:56:24.185Z,8.50
2023-05-08T05:58:51.770Z,8.60
2023-05-08T06:01:18.769Z,8.70
2023-05-08T06:03:46.127Z,8.70
2023-05-08T06:06:13.340Z,8.90
2023-05-08T06:08:40.530Z,9.10
2023-05-08T06:11:07.695Z,9.30
2023-05-08T06:13:34.981Z,9.70
2023-05-08T06:16:02.047Z,10.00
2023-05-08T06:18:29.758Z,10.60
2023-05-08T06:21:00.775Z,10.70
2023-05-08T06:23:28.174Z,10.80
2023-05-08T06:25:55.360Z,11.00
2023-05-08T06:28:24.449Z,11.40
2023-05-08T06:30:51.852Z,11.70
2023-05-08T06:33:19.281Z,12.00
2023-05-08T06:35:47.654Z,12.50
2023-05-08T06:38:15.486Z,12.80
2023-05-08T06:40:46.541Z,12.90
2023-05-08T06:43:14.046Z,13.20
2023-05-08T06:45:41.196Z,13.70
2023-05-08T06:48:08.757Z,14.00
2023-05-08T06:50:39.453Z,14.20
2023-05-08T06:53:08.087Z,14.10
2023-05-08T06:55:35.088Z,14.50
2023-05-08T06:58:02.378Z,14.90
2023-05-08T07:00:29.348Z,15.20
2023-05-08T07:02:56.622Z,15.50
2023-05-08T07:05:23.892Z,16.00
2023-05-08T07:07:53.978Z,15.70
2023-05-08T07:10:22.876Z,15.60
2023-05-08T07:12:50.382Z,15.90
2023-05-08T07:15:25.967Z,15.80
2023-05-08T07:17:53.890Z,16.30
2023-05-08T07:20:21.633Z,16.50
2023-05-08T07:22:49.021Z,16.30
2023-05-08T07:25:16.263Z,16.50
2023-05-08T07:27:43.903Z,16.40
2023-05-08T07:30:11.196Z,16.50
2023-05-08T07:32:41.566Z,16.80
2023-05-08T07:35:11.215Z,17.70
2023-05-08T07:37:41.708Z,17.80
2023-05-08T07:40:09.154Z,18.90
2023-05-08T07:42:44.097Z,19.60
2023-05-08T07:45:13.389Z,20.00
2023-05-08T07:47:52.852Z,20.30
2023-05-08T07:50:22.225Z,20.20
2023-05-08T07:52:50.480Z,19.90
2023-05-08T07:55:18.746Z,19.60
2023-05-08T07:57:46.194Z,20.00
2023-05-08T08:00:15.318Z,20.40
2023-05-08T08:02:44.132Z,20.50
2023-05-08T08:05:11.918Z,20.60
2023-05-08T08:07:39.424Z,20.90
2023-05-08T08:10:07.387Z,20.90
2023-05-08T08:12:34.819Z,21.30
2023-05-08T08:15:02.013Z,21.70
2023-05-08T08:17:29.492Z,21.90
2023-05-08T08:19:57.197Z,22.80
2023-05-08T08:22:25.878Z,24.20
2023-05-08T08:24:55.724Z,24.00
2023-05-08T08:27:23.882Z,22.60
2023-05-08T08:29:58.552Z,22.10
2023-05-08T08:32:32.318Z,22.00
2023-05-08T08:34:59.314Z,22.30
2023-05-08T08:37:26.812Z,22.40
2023-05-08T08:39:54.185Z,23.00
2023-05-08T08:42:21.515Z,23.70
2023-05-08T08:44:48.573Z,23.90
2023-05-08T08:47:19.070Z,23.90
2023-05-08T08:49:51.123Z,23.50
2023-05-08T08:52:49.986Z,23.80
2023-05-08T08:55:18.655Z,23.70
2023-05-08T08:57:53.898Z,23.00
2023-05-08T09:00:23.289Z,23.00
2023-05-08T09:02:51.377Z,22.50
2023-05-08T09:05:18.966Z,22.60
2023-05-08T09:07:46.638Z,22.30
2023-05-08T09:10:15.787Z,21.80
2023-05-08T09:12:45.016Z,22.40
2023-05-08T09:15:12.798Z,21.80
2023-05-08T09:17:40.443Z,22.20
2023-05-08T09:20:08.864Z,20.90
2023-05-08T09:22:37.392Z,20.90
2023-05-08T09:25:04.747Z,22.20
2023-05-08T09:27:32.654Z,22.60
2023-05-08T09:30:04.203Z,21.70
2023-05-08T09:32:33.207Z,21.90
2023-05-08T09:35:00.717Z,22.80
2023-05-08T09:37:29.018Z,23.60
2023-05-08T09:40:22.568Z,23.30
2023-05-08T09:42:50.973Z,23.80
2023-05-08T09:45:32.370Z,23.40
2023-05-08T09:47:59.961Z,22.00
2023-05-08T09:50:27.774Z,22.00
2023-05-08T09:52:55.353Z,22.30
2023-05-08T09:55:22.407Z,20.00
2023-05-08T09:57:58.513Z,18.50
2023-05-08T10:00:30.033Z,19.50
2023-05-08T10:03:02.117Z,21.10
2023-05-08T10:05:34.630Z,22.10
2023-05-08T10:08:18.541Z,21.20
2023-05-08T10:10:45.491Z,22.60
2023-05-08T10:13:12.834Z,23.10
2023-05-08T10:15:42.910Z,22.50
2023-05-08T10:18:12.206Z,20.30
2023-05-08T10:20:41.514Z,18.60
2023-05-08T10:23:14.525Z,17.80
2023-05-08T10:25:45.501Z,17.40
2023-05-08T10:28:29.003Z,17.10
2023-05-08T10:31:00.884Z,16.90
2023-05-08T10:33:34.230Z,16.20
2023-05-08T10:36:01.567Z,15.40
2023-05-08T10:38:30.657Z,14.90
2023-05-08T10:41:01.441Z,15.20
2023-05-08T10:43:31.031Z,15.30
2023-05-08T10:46:01.799Z,15.20
2023-05-08T10:49:16.382Z,15.20
2023-05-08T10:51:57.788Z,15.20
2023-05-08T10:54:38.622Z,15.30
2023-05-08T10:57:12.435Z,15.10
2023-05-08T10:59:48.177Z,15.00
2023-05-08T11:02:16.633Z,14.80
2023-05-08T11:04:44.151Z,14.70
2023-05-08T11:07:11.567Z,14.70
2023-05-08T11:09:41.837Z,14.60
2023-05-08T11:12:25.773Z,14.30
2023-05-08T11:15:07.144Z,14.10
2023-05-08T11:17:34.284Z,13.80
2023-05-08T11:20:04.537Z,13.70
2023-05-08T11:22:35.107Z,14.00
2023-05-08T11:25:05.812Z,14.30
2023-05-08T11:28:01.769Z,14.60
2023-05-08T11:30:39.640Z,14.50
2023-05-08T11:33:07.086Z,14.50
2023-05-08T11:35:55.546Z,14.50
2023-05-08T11:38:28.080Z,14.20
2023-05-08T11:41:09.425Z,14.20
2023-05-08T11:44:15.083Z,14.20
2023-05-08T11:46:56.142Z,13.90
2023-05-08T11:49:28.979Z,14.00
2023-05-08T11:51:59.486Z,14.00
2023-05-08T11:54:30.505Z,13.70
2023-05-08T11:56:59.510Z,13.80
2023-05-08T11:59:26.707Z,13.90
2023-05-08T12:02:06.914Z,13.90
2023-05-08T12:04:47.650Z,13.90
2023-05-08T12:07:16.212Z,14.00
2023-05-08T12:09:43.323Z,14.20
2023-05-08T12:12:10.610Z,14.10
2023-05-08T12:14:38.786Z,14.10
2023-05-08T12:17:06.012Z,14.10
2023-05-08T12:19:33.087Z,14.00
2023-05-08T12:22:00.659Z,14.00
2023-05-08T12:24:27.639Z,14.00
2023-05-08T12:26:58.127Z,14.10
2023-05-08T12:29:25.145Z,14.10
2023-05-08T12:31:53.146Z,14.20
2023-05-08T12:34:21.209Z,14.20
2023-05-08T12:36:48.957Z,14.30
2023-05-08T12:39:18.022Z,14.30
2023-05-08T12:41:49.802Z,14.30
2023-05-08T12:44:18.635Z,14.40
2023-05-08T12:46:49.117Z,14.40
2023-05-08T12:49:32.077Z,14.40
2023-05-08T12:52:09.484Z,14.50
2023-05-08T12:54:41.651Z,14.60
2023-05-08T12:57:13.584Z,14.70
2023-05-08T12:59:41.658Z,14.60
2023-05-08T13:02:21.410Z,14.50
2023-05-08T13:04:48.672Z,14.40
2023-05-08T13:07:16.330Z,14.40
2023-05-08T13:10:03.700Z,14.40
2023-05-08T13:12:31.562Z,14.40
2023-05-08T13:14:58.508Z,14.30
2023-05-08T13:17:25.828Z,14.30
2023-05-08T13:19:52.774Z,14.40
2023-05-08T13:22:23.188Z,14.40
2023-05-08T13:24:50.161Z,14.40
2023-05-08T13:27:17.398Z,14.40
2023-05-08T13:29:44.473Z,14.40
2023-05-08T13:32:12.272Z,14.50
2023-05-08T13:34:47.268Z,14.30
2023-05-08T13:37:17.467Z,14.30
2023-05-08T13:39:44.426Z,14.40
2023-05-08T13:42:11.657Z,14.50
2023-05-08T13:44:38.664Z,14.60
2023-05-08T13:47:06.268Z,14.70
2023-05-08T13:49:33.245Z,14.70
2023-05-08T13:52:01.109Z,14.90
2023-05-08T13:54:28.332Z,15.50
2023-05-08T13:56:55.836Z,17.40
2023-05-08T13:59:22.784Z,19.00
2023-05-08T14:01:50.395Z,20.20
2023-05-08T14:04:17.354Z,21.50
2023-05-08T14:06:44.571Z,21.80
2023-05-08T14:09:11.579Z,22.10
2023-05-08T14:11:38.784Z,22.20
2023-05-08T14:14:05.822Z,22.60
2023-05-08T14:16:33.233Z,23.50
2023-05-08T14:19:00.225Z,24.10
2023-05-08T14:21:27.890Z,24.80
2023-05-08T14:23:54.937Z,25.30
2023-05-08T14:26:22.479Z,25.50
2023-05-08T14:28:49.533Z,25.50
2023-05-08T14:31:16.870Z,25.30
2023-05-08T14:33:43.932Z,24.20
2023-05-08T14:36:11.453Z,23.10
2023-05-08T14:38:38.412Z,22.80
2023-05-08T14:41:05.288Z,22.40
2023-05-08T14:43:32.750Z,22.70
2023-05-08T14:46:00.793Z,22.60
2023-05-08T14:48:28.210Z,22.30
2023-05-08T14:50:56.668Z,22.20
2023-05-08T14:53:24.416Z,22.40
2023-05-08T14:55:51.639Z,22.10
2023-05-08T14:58:19.037Z,21.50
2023-05-08T15:00:46.133Z,20.00
2023-05-08T15:03:13.446Z,19.50
2023-05-08T15:05:40.652Z,19.30
2023-05-08T15:08:09.616Z,18.20
2023-05-08T15:10:37.698Z,17.40
2023-05-08T15:13:05.564Z,16.70
2023-05-08T15:15:32.641Z,16.30
2023-05-08T15:18:00.439Z,15.80
2023-05-08T15:20:27.596Z,15.40
2023-05-08T15:22:54.975Z,15.20
2023-05-08T15:25:21.990Z,15.00
2023-05-08T15:27:52.816Z,14.90
2023-05-08T15:30:20.313Z,14.80
2023-05-08T15:32:48.620Z,14.60
2023-05-08T15:35:16.028Z,14.60
2023-05-08T15:37:43.357Z,14.50
2023-05-08T15:40:10.744Z,14.50
2023-05-08T15:42:37.982Z,14.50
2023-05-08T15:45:05.469Z,14.50
2023-05-08T15:47:33.301Z,14.40
2023-05-08T15:50:00.308Z,14.30
2023-05-08T15:52:28.184Z,14.30
2023-05-08T15:54:55.182Z,14.20
2023-05-08T15:57:22.716Z,14.10
2023-05-08T15:59:50.110Z,13.90
2023-05-08T16:02:17.482Z,13.80
2023-05-08T16:04:44.560Z,13.70
2023-05-08T16:07:11.969Z,13.70
2023-05-08T16:09:38.968Z,13.70
2023-05-08T16:12:07.054Z,13.80
2023-05-08T16:14:35.539Z,13.80
2023-05-08T16:17:03.579Z,13.80
2023-05-08T16:19:30.766Z,13.90
2023-05-08T16:21:58.268Z,13.80
2023-05-08T16:24:25.827Z,13.90
2023-05-08T16:26:53.392Z,13.80
2023-05-08T16:29:20.487Z,13.80
2023-05-08T16:31:47.902Z,13.80
2023-05-08T16:34:14.994Z,13.80
2023-05-08T16:36:42.243Z,13.80
2023-05-08T16:39:09.380Z,13.70
2023-05-08T16:41:36.668Z,13.70
2023-05-08T16:44:03.653Z,13.60
2023-05-08T16:46:31.037Z,13.50
2023-05-08T16:48:58.200Z,13.50
2023-05-08T16:51:25.701Z,13.50
2023-05-08T16:53:52.727Z,13.40
2023-05-08T16:56:22.578Z,13.40
2023-05-08T16:58:49.584Z,13.40
2023-05-08T17:01:16.875Z,13.30
2023-05-08T17:03:44.213Z,13.30
2023-05-08T17:06:11.515Z,13.30
2023-05-08T17:08:38.510Z,13.20
2023-05-08T17:11:06.334Z,13.10
2023-05-08T17:13:33.466Z,13.10
2023-05-08T17:16:02.424Z,13.00
2023-05-08T17:18:29.467Z,13.00
2023-05-08T17:20:56.727Z,13.00
2023-05-08T17:23:23.660Z,12.90
2023-05-08T17:25:58.073Z,12.90
2023-05-08T17:28:25.167Z,12.80
2023-05-08T17:30:52.964Z,12.80
2023-05-08T17:33:21.118Z,12.70
2023-05-08T17:35:48.418Z,12.70
2023-05-08T17:38:15.705Z,12.70
2023-05-08T17:40:43.064Z,12.70
2023-05-08T17:43:10.091Z,12.60
2023-05-08T17:45:37.720Z,12.50
2023-05-08T17:48:05.664Z,12.40
2023-05-08T17:50:34.551Z,12.30
2023-05-08T17:53:01.524Z,12.20
2023-05-08T17:55:31.356Z,12.20
2023-05-08T17:57:58.356Z,12.10
2023-05-08T18:00:25.610Z,12.00
2023-05-08T18:02:52.712Z,12.00
2023-05-08T18:05:20.130Z,11.80
2023-05-08T18:07:47.226Z,11.70
2023-05-08T18:10:15.003Z,11.60
2023-05-08T18:12:42.562Z,11.50
2023-05-08T18:15:10.545Z,11.40
2023-05-08T18:17:37.577Z,11.40
2023-05-08T18:20:07.832Z,11.30
2023-05-08T18:22:35.277Z,11.20
2023-05-08T18:25:02.920Z,11.10
2023-05-08T18:27:29.941Z,11.00
2023-05-08T18:29:57.162Z,10.90
2023-05-08T18:32:24.167Z,10.90
2023-05-08T18:34:51.481Z,10.80
2023-05-08T18:37:18.509Z,10.70
2023-05-08T18:39:45.862Z,10.60
2023-05-08T18:42:12.842Z,10.40
2023-05-08T18:44:40.149Z,10.10
2023-05-08T18:47:07.666Z,9.80
2023-05-08T18:49:35.405Z,9.60
2023-05-08T18:52:02.414Z,9.50
2023-05-08T18:54:29.676Z,9.30
2023-05-08T18:56:56.689Z,9.10
2023-05-08T18:59:23.965Z,9.00
2023-05-08T19:01:51.238Z,8.90
2023-05-08T19:04:18.459Z,8.90
2023-05-08T19:06:45.651Z,8.70
2023-05-08T19:09:13.285Z,8.60
2023-05-08T19:11:40.276Z,8.50
2023-05-08T19:14:07.698Z,8.40
2023-05-08T19:16:34.701Z,8.30
2023-05-08T19:19:02.008Z,8.30
2023-05-08T19:21:29.027Z,8.20
2023-05-08T19:23:56.256Z,8.20
2023-05-08T19:26:23.389Z,8.00
2023-05-08T19:28:50.621Z,8.00
2023-05-08T19:31:18.642Z,7.90
2023-05-08T19:33:47.329Z,7.90
2023-05-08T19:36:14.342Z,7.80
2023-05-08T19:38:41.956Z,7.80
2023-05-08T19:41:10.756Z,7.80
2023-05-08T19:43:38.085Z,7.70
2023-05-08T19:46:05.099Z,7.60
2023-05-08T19:48:32.298Z,7.60
2023-05-08T19:51:09.021Z,7.60
2023-05-08T19:53:36.409Z,7.50
2023-05-08T19:56:03.470Z,7.50
2023-05-08T19:58:31.674Z,7.50
2023-05-08T20:00:59.054Z,7.50
2023-05-08T20:03:26.799Z,7.40
2023-05-08T20:05:53.846Z,7.30
2023-05-08T20:08:21.101Z,7.20
2023-05-08T20:10:49.147Z,7.10
2023-05-08T20:13:17.344Z,7.20
2023-05-08T20:15:44.534Z,7.20
2023-05-08T20:18:11.869Z,7.30
2023-05-08T20:20:38.819Z,7.20
2023-05-08T20:23:06.156Z,7.30
2023-05-08T20:25:33.155Z,7.30
2023-05-08T20:28:00.483Z,7.30
2023-05-08T20:30:27.507Z,7.30
2023-05-08T20:32:54.805Z,7.30
2023-05-08T20:35:21.858Z,7.20
2023-05-08T20:37:49.428Z,7.20
2023-05-08T20:40:16.743Z,7.20
2023-05-08T20:42:44.120Z,7.20
2023-05-08T20:45:11.533Z,7.10
2023-05-08T20:47:39.371Z,7.00
2023-05-08T20:50:07.323Z,6.90
2023-05-08T20:52:35.956Z,6.70
2023-05-08T20:55:05.151Z,6.60
2023-05-08T20:57:32.443Z,6.50
2023-05-08T20:59:59.616Z,6.50
2023-05-08T21:02:27.075Z,6.40
2023-05-08T21:04:54.242Z,6.30
2023-05-08T21:07:21.516Z,6.30
2023-05-08T21:09:48.422Z,6.20
2023-05-08T21:12:15.740Z,6.00
2023-05-08T21:14:45.740Z,6.00
2023-05-08T21:17:13.256Z,6.00
2023-05-08T21:19:40.308Z,5.90
2023-05-08T21:22:09.319Z,5.80
2023-05-08T21:24:37.278Z,5.80
2023-05-08T21:27:04.777Z,5.80
2023-05-08T21:29:31.699Z,5.80
2023-05-08T21:31:59.003Z,5.60
2023-05-08T21:34:26.855Z,5.60
2023-05-08T21:36:54.269Z,5.60
2023-05-08T21:39:21.268Z,5.50
2023-05-08T21:41:48.519Z,5.50
2023-05-08T21:44:15.919Z,5.50
2023-05-08T21:46:43.504Z,5.50
2023-05-08T21:49:10.910Z,5.50
2023-05-08T21:51:38.156Z,5.50
2023-05-08T21:54:05.176Z,5.60
2023-05-08T21:56:32.355Z,5.50
2023-05-08T21:58:59.283Z,5.50
2023-05-08T22:01:26.593Z,5.50
2023-05-08T22:03:53.582Z,5.50
2023-05-08T22:06:20.881Z,5.40
2023-05-08T22:08:48.161Z,5.40
2023-05-08T22:11:15.384Z,5.40
2023-05-08T22:13:42.577Z,5.40
2023-05-08T22:16:09.588Z,5.30
2023-05-08T22:18:37.192Z,5.20
2023-05-08T22:21:04.199Z,5.20
2023-05-08T22:23:34.490Z,5.10
2023-05-08T22:26:01.488Z,5.10
2023-05-08T22:28:28.978Z,5.20
2023-05-08T22:30:55.891Z,5.30
2023-05-08T22:33:23.069Z,5.40
2023-05-08T22:35:49.972Z,5.40
2023-05-08T22:38:17.178Z,5.40
2023-05-08T22:40:44.298Z,5.30
2023-05-08T22:43:11.678Z,5.20
2023-05-08T22:45:38.757Z,5.20
2023-05-08T22:48:06.549Z,5.20
2023-05-08T22:50:34.938Z,5.10
2023-05-08T22:53:07.904Z,5.10
2023-05-08T22:55:35.779Z,5.10
2023-05-08T22:58:03.211Z,5.00
2023-05-08T23:00:31.073Z,5.10
2023-05-08T23:02:58.295Z,5.10
2023-05-08T23:05:25.652Z,5.10
2023-05-08T23:07:52.552Z,5.00
2023-05-08T23:10:19.771Z,4.90
2023-05-08T23:12:46.861Z,4.80
2023-05-08T23:15:14.717Z,4.80
2023-05-08T23:17:41.862Z,4.70
2023-05-08T23:20:09.666Z,4.60
2023-05-08T23:22:36.588Z,4.50
2023-05-08T23:25:04.048Z,4.60
2023-05-08T23:27:31.054Z,4.40
2023-05-08T23:29:58.561Z,4.40
2023-05-08T23:32:25.578Z,4.30
2023-05-08T23:34:52.828Z,4.30
2023-05-08T23:37:19.870Z,4.40
2023-05-08T23:39:47.178Z,4.40
2023-05-08T23:42:14.115Z,4.30
2023-05-08T23:44:41.337Z,4.30
2023-05-08T23:47:08.377Z,4.20
2023-05-08T23:49:35.787Z,4.20
2023-05-08T23:52:02.907Z,4.10
2023-05-08T23:54:30.327Z,4.10
2023-05-08T23:56:57.235Z,4.00
2023-05-08T23:59:24.541Z,4.00
